Time,TemperatureF,DewpointF,PressureIn,WindDirection,WindDirectionDegrees,WindSpeedMPH,WindSpeedGustMPH,Humidity,HourlyPrecipIn,Conditions,Clouds,dailyrainin,SoftwareType,DateUTC
2013-05-02 00:02:00,44.6,39.5,30.47,North,0,0.0,0.0,82,0.00,,,0.00,pywws,2013-05-02 04:02:00,
2013-05-02 00:04:00,44.6,39.5,30.47,North,0,0.0,0.0,82,0.00,,,0.00,pywws,2013-05-02 04:04:00,
2013-05-02 00:05:00,44.4,39.6,30.47,North,0,0.0,0.0,83,0.00,,,0.00,pywws,2013-05-02 04:05:00,
2013-05-02 00:07:00,44.6,39.5,30.47,North,0,0.0,0.0,82,0.00,,,0.00,pywws,2013-05-02 04:07:00,
2013-05-02 00:13:00,44.4,39.6,30.47,North,0,0.0,0.0,83,0.00,,,0.00,pywws,2013-05-02 04:13:00,
2013-05-02 00:20:00,43.3,38.5,30.47,North,0,0.0,0.0,83,0.00,,,0.00,pywws,2013-05-02 04:20:00,
2013-05-02 00:26:00,43.3,38.8,30.47,North,0,0.0,0.0,84,0.00,,,0.00,pywws,2013-05-02 04:26:00,
2013-05-02 00:32:00,43.5,39.3,30.47,North,0,0.0,0.0,85,0.00,,,0.00,pywws,2013-05-02 04:32:00,
2013-05-02 00:38:00,43.5,39.6,30.47,North,0,0.0,0.0,86,0.00,,,0.00,pywws,2013-05-02 04:38:00,
2013-05-02 00:44:00,43.0,39.1,30.47,North,0,0.0,0.0,86,0.00,,,0.00,pywws,2013-05-02 04:44:00,
2013-05-02 00:50:00,42.6,39.0,30.47,North,0,0.0,0.0,87,0.00,,,0.00,pywws,2013-05-02 04:50:00,
2013-05-02 00:56:00,42.8,39.2,30.47,North,0,0.0,0.0,87,0.00,,,0.00,pywws,2013-05-02 04:56:00,
2013-05-02 01:03:00,42.6,39.6,30.46,North,0,0.0,0.0,89,0.00,,,0.00,pywws,2013-05-02 05:03:00,
2013-05-02 01:09:00,42.4,39.7,30.46,North,0,0.0,0.0,90,0.00,,,0.00,pywws,2013-05-02 05:09:00,
2013-05-02 01:15:00,42.3,39.5,30.46,North,0,0.0,0.0,90,0.00,,,0.00,pywws,2013-05-02 05:15:00,
2013-05-02 01:21:00,42.1,39.6,30.46,North,0,0.0,0.0,91,0.00,,,0.00,pywws,2013-05-02 05:21:00,
2013-05-02 01:27:00,42.1,39.9,30.46,North,0,0.0,0.0,92,0.00,,,0.00,pywws,2013-05-02 05:27:00,
2013-05-02 01:32:00,41.9,40.0,30.46,North,0,0.0,0.0,93,0.00,,,0.00,pywws,2013-05-02 05:32:00,
2013-05-02 01:38:00,41.4,39.5,30.45,North,0,0.0,0.0,93,0.00,,,0.00,pywws,2013-05-02 05:38:00,
2013-05-02 01:43:00,41.4,39.5,30.45,North,0,0.0,0.0,93,0.00,,,0.00,pywws,2013-05-02 05:43:00,
2013-05-02 01:50:00,41.7,40.1,30.46,North,0,0.0,0.0,94,0.00,,,0.00,pywws,2013-05-02 05:50:00,
2013-05-02 01:55:00,41.2,39.6,30.45,North,0,0.0,0.0,94,0.00,,,0.00,pywws,2013-05-02 05:55:00,
2013-05-02 02:02:00,41.5,40.2,30.45,North,0,0.0,0.0,95,0.00,,,0.00,pywws,2013-05-02 06:02:00,
2013-05-02 02:07:00,41.9,40.6,30.45,North,0,0.0,0.0,95,0.00,,,0.00,pywws,2013-05-02 06:07:00,
2013-05-02 02:13:00,41.7,40.7,30.45,North,0,0.0,0.0,96,0.00,,,0.00,pywws,2013-05-02 06:13:00,
2013-05-02 02:19:00,41.7,40.7,30.45,North,0,0.0,0.0,96,0.00,,,0.00,pywws,2013-05-02 06:19:00,
2013-05-02 02:27:00,41.0,39.9,30.45,North,0,0.0,0.0,96,0.00,,,0.00,pywws,2013-05-02 06:27:00,
2013-05-02 02:32:00,40.6,39.9,30.44,North,0,0.0,0.0,97,0.00,,,0.00,pywws,2013-05-02 06:32:00,
2013-05-02 02:38:00,41.2,40.4,30.44,North,0,0.0,0.0,97,0.00,,,0.00,pywws,2013-05-02 06:38:00,
2013-05-02 02:43:00,41.2,40.4,30.45,North,0,0.0,0.0,97,0.00,,,0.00,pywws,2013-05-02 06:43:00,
2013-05-02 02:49:00,41.4,40.8,30.44,North,0,0.0,0.0,98,0.00,,,0.00,pywws,2013-05-02 06:49:00,
2013-05-02 02:55:00,40.8,40.6,30.44,North,0,0.0,0.0,99,0.00,,,0.00,pywws,2013-05-02 06:55:00,
2013-05-02 03:00:00,40.8,40.6,30.44,North,0,0.0,0.0,99,0.00,,,0.00,pywws,2013-05-02 07:00:00,
2013-05-02 03:06:00,41.0,40.5,30.44,North,0,0.0,0.0,98,0.00,,,0.00,pywws,2013-05-02 07:06:00,
2013-05-02 03:11:00,40.6,40.4,30.43,North,0,0.0,0.0,99,0.00,,,0.00,pywws,2013-05-02 07:11:00,
2013-05-02 03:17:00,39.9,39.7,30.43,North,0,0.0,0.0,99,0.00,,,0.00,pywws,2013-05-02 07:17:00,
2013-05-02 03:23:00,39.6,39.3,30.43,North,0,0.0,0.0,99,0.00,,,0.00,pywws,2013-05-02 07:23:00,
2013-05-02 03:29:00,39.7,39.5,30.43,North,0,0.0,0.0,99,0.00,,,0.00,pywws,2013-05-02 07:29:00,
2013-05-02 03:37:00,40.5,40.2,30.43,North,0,0.0,0.0,99,0.00,,,0.00,pywws,2013-05-02 07:37:00,
2013-05-02 03:43:00,40.5,40.2,30.43,North,0,0.0,0.0,99,0.00,,,0.00,pywws,2013-05-02 07:43:00,
2013-05-02 03:48:00,40.3,40.0,30.43,North,0,0.0,0.0,99,0.00,,,0.00,pywws,2013-05-02 07:48:00,
2013-05-02 03:55:00,40.3,40.0,30.43,North,0,0.0,0.0,99,0.00,,,0.00,pywws,2013-05-02 07:55:00,
2013-05-02 04:00:00,40.1,39.8,30.43,North,0,0.0,0.0,99,0.00,,,0.00,pywws,2013-05-02 08:00:00,
2013-05-02 04:07:00,40.1,39.8,30.44,North,0,0.0,0.0,99,0.00,,,0.00,pywws,2013-05-02 08:07:00,
2013-05-02 04:14:00,39.4,39.1,30.43,North,0,0.0,0.0,99,0.00,,,0.00,pywws,2013-05-02 08:14:00,
2013-05-02 04:19:00,39.7,39.5,30.43,North,0,0.0,0.0,99,0.00,,,0.00,pywws,2013-05-02 08:19:00,
2013-05-02 04:26:00,39.6,39.3,30.43,North,0,0.0,0.0,99,0.00,,,0.00,pywws,2013-05-02 08:26:00,
2013-05-02 04:33:00,39.0,38.8,30.43,North,0,0.0,0.0,99,0.00,,,0.00,pywws,2013-05-02 08:33:00,
2013-05-02 04:39:00,39.0,38.8,30.43,North,0,0.0,0.0,99,0.00,,,0.00,pywws,2013-05-02 08:39:00,
2013-05-02 04:45:00,39.4,39.1,30.43,North,0,0.0,0.0,99,0.00,,,0.00,pywws,2013-05-02 08:45:00,
2013-05-02 04:51:00,39.0,38.8,30.43,North,0,0.0,0.0,99,0.00,,,0.00,pywws,2013-05-02 08:51:00,
2013-05-02 04:56:00,39.2,38.9,30.44,North,0,0.0,0.0,99,0.00,,,0.00,pywws,2013-05-02 08:56:00,
2013-05-02 05:02:00,39.2,38.9,30.43,North,0,0.0,0.0,99,0.00,,,0.00,pywws,2013-05-02 09:02:00,
2013-05-02 05:07:00,38.5,38.2,30.44,North,0,0.0,0.0,99,0.00,,,0.00,pywws,2013-05-02 09:07:00,
2013-05-02 05:13:00,39.0,38.8,30.43,North,0,0.0,0.0,99,0.00,,,0.00,pywws,2013-05-02 09:13:00,
2013-05-02 05:19:00,38.7,38.4,30.43,North,0,0.0,0.0,99,0.00,,,0.00,pywws,2013-05-02 09:19:00,
2013-05-02 05:24:00,38.5,38.2,30.43,North,0,0.0,0.0,99,0.00,,,0.00,pywws,2013-05-02 09:24:00,
2013-05-02 05:30:00,38.7,38.4,30.43,North,0,0.0,0.0,99,0.00,,,0.00,pywws,2013-05-02 09:30:00,
2013-05-02 05:36:00,38.7,38.4,30.43,North,0,0.0,0.0,99,0.00,,,0.00,pywws,2013-05-02 09:36:00,
2013-05-02 05:44:00,39.0,38.8,30.44,North,0,0.0,0.0,99,0.00,,,0.00,pywws,2013-05-02 09:44:00,
2013-05-02 05:50:00,38.8,38.6,30.43,North,0,0.0,0.0,99,0.00,,,0.00,pywws,2013-05-02 09:50:00,
2013-05-02 05:56:00,39.0,38.8,30.44,North,0,0.0,0.0,99,0.00,,,0.00,pywws,2013-05-02 09:56:00,
2013-05-02 06:02:00,39.0,38.8,30.44,North,0,0.0,0.0,99,0.00,,,0.00,pywws,2013-05-02 10:02:00,
2013-05-02 06:07:00,38.7,38.4,30.44,North,0,0.0,0.0,99,0.00,,,0.00,pywws,2013-05-02 10:07:00,
2013-05-02 06:14:00,39.0,38.8,30.44,North,0,0.0,0.0,99,0.00,,,0.00,pywws,2013-05-02 10:14:00,
2013-05-02 06:19:00,39.2,38.9,30.44,North,0,0.0,0.0,99,0.00,,,0.00,pywws,2013-05-02 10:19:00,
2013-05-02 06:25:00,39.4,39.1,30.44,North,0,0.0,0.0,99,0.00,,,0.00,pywws,2013-05-02 10:25:00,
2013-05-02 06:31:00,39.7,39.5,30.44,North,0,0.0,0.0,99,0.00,,,0.00,pywws,2013-05-02 10:31:00,
2013-05-02 06:36:00,40.3,40.0,30.44,North,0,0.0,0.0,99,0.00,,,0.00,pywws,2013-05-02 10:36:00,
2013-05-02 06:43:00,40.6,40.4,30.44,North,0,0.0,0.0,99,0.00,,,0.00,pywws,2013-05-02 10:43:00,
2013-05-02 06:49:00,41.2,40.9,30.44,North,0,0.0,0.0,99,0.00,,,0.00,pywws,2013-05-02 10:49:00,
2013-05-02 06:55:00,41.9,41.6,30.45,North,0,0.0,0.0,99,0.00,,,0.00,pywws,2013-05-02 10:55:00,
2013-05-02 07:02:00,42.6,42.4,30.45,North,0,0.0,0.0,99,0.00,,,0.00,pywws,2013-05-02 11:02:00,
2013-05-02 07:07:00,43.5,43.0,30.45,North,0,0.0,0.0,98,0.00,,,0.00,pywws,2013-05-02 11:07:00,
2013-05-02 07:13:00,44.6,43.8,30.45,North,0,0.0,0.0,97,0.00,,,0.00,pywws,2013-05-02 11:13:00,
2013-05-02 07:19:00,45.7,44.9,30.45,North,0,0.0,0.0,97,0.00,,,0.00,pywws,2013-05-02 11:19:00,
2013-05-02 07:24:00,45.9,45.1,30.45,South,180,0.0,0.0,97,0.00,,,0.00,pywws,2013-05-02 11:24:00,
2013-05-02 07:30:00,49.3,49.0,30.45,South,180,0.0,0.0,99,0.00,,,0.00,pywws,2013-05-02 11:30:00,
2013-05-02 07:35:00,52.2,51.6,30.45,South,180,0.0,0.0,98,0.00,,,0.00,pywws,2013-05-02 11:35:00,
2013-05-02 07:41:00,55.2,53.5,30.45,South,180,0.0,0.0,94,0.00,,,0.00,pywws,2013-05-02 11:41:00,
2013-05-02 07:47:00,57.0,51.2,30.45,South,180,0.0,0.0,81,0.00,,,0.00,pywws,2013-05-02 11:47:00,
2013-05-02 07:52:00,59.0,48.5,30.45,South,180,0.0,0.0,68,0.00,,,0.00,pywws,2013-05-02 11:52:00,
2013-05-02 07:58:00,59.5,46.9,30.45,South,180,0.0,0.0,63,0.00,,,0.00,pywws,2013-05-02 11:58:00,
2013-05-02 08:03:00,62.2,48.6,30.45,South,180,0.0,0.0,61,0.00,,,0.00,pywws,2013-05-02 12:03:00,
2013-05-02 08:09:00,62.8,45.9,30.45,South,180,0.0,0.0,54,0.00,,,0.00,pywws,2013-05-02 12:09:00,
2013-05-02 08:15:00,62.8,45.9,30.45,South,180,0.0,0.0,54,0.00,,,0.00,pywws,2013-05-02 12:15:00,
2013-05-02 08:20:00,61.9,44.6,30.45,East,90,0.0,0.0,53,0.00,,,0.00,pywws,2013-05-02 12:20:00,
2013-05-02 08:27:00,63.7,46.7,30.45,East,90,0.0,0.0,54,0.00,,,0.00,pywws,2013-05-02 12:27:00,
2013-05-02 08:32:00,63.3,45.4,30.45,North,0,0.0,0.0,52,0.00,,,0.00,pywws,2013-05-02 12:32:00,
2013-05-02 08:38:00,62.6,43.7,30.45,South,180,0.0,0.0,50,0.00,,,0.00,pywws,2013-05-02 12:38:00,
2013-05-02 08:44:00,63.3,44.9,30.45,North,0,0.0,0.0,51,0.00,,,0.00,pywws,2013-05-02 12:44:00,
2013-05-02 08:50:00,64.0,44.5,30.45,East,90,0.0,0.0,49,0.00,,,0.00,pywws,2013-05-02 12:50:00,
2013-05-02 08:55:00,62.6,43.2,30.45,East,90,0.0,0.0,49,0.00,,,0.00,pywws,2013-05-02 12:55:00,
2013-05-02 09:01:00,66.0,46.8,30.45,South,180,0.0,0.0,50,0.00,,,0.00,pywws,2013-05-02 13:01:00,
2013-05-02 09:07:00,66.6,44.6,30.44,North,0,0.0,0.0,45,0.00,,,0.00,pywws,2013-05-02 13:07:00,
2013-05-02 09:12:00,65.3,44.0,30.44,NW,315,0.0,0.0,46,0.00,,,0.00,pywws,2013-05-02 13:12:00,
2013-05-02 09:18:00,66.6,44.0,30.45,North,0,0.0,0.0,44,0.00,,,0.00,pywws,2013-05-02 13:18:00,
2013-05-02 09:23:00,67.1,45.6,30.44,West,270,0.0,0.0,46,0.00,,,0.00,pywws,2013-05-02 13:23:00,
2013-05-02 09:29:00,67.6,44.9,30.44,NE,45,0.0,0.0,44,0.00,,,0.00,pywws,2013-05-02 13:29:00,
2013-05-02 09:35:00,68.9,44.2,30.44,West,270,0.0,0.0,41,0.00,,,0.00,pywws,2013-05-02 13:35:00,
2013-05-02 09:40:00,69.1,43.7,30.44,North,0,0.0,0.0,40,0.00,,,0.00,pywws,2013-05-02 13:40:00,
2013-05-02 09:46:00,68.9,44.2,30.44,North,0,0.0,0.0,41,0.00,,,0.00,pywws,2013-05-02 13:46:00,
2013-05-02 09:51:00,69.4,44.7,30.44,North,0,0.0,0.0,41,0.00,,,0.00,pywws,2013-05-02 13:51:00,
2013-05-02 09:57:00,69.6,44.2,30.44,East,90,0.0,0.0,40,0.00,,,0.00,pywws,2013-05-02 13:57:00,
2013-05-02 10:03:00,69.4,42.0,30.44,West,270,0.0,0.0,37,0.00,,,0.00,pywws,2013-05-02 14:03:00,
2013-05-02 10:08:00,69.6,43.6,30.44,NE,45,0.0,0.0,39,0.00,,,0.00,pywws,2013-05-02 14:08:00,
2013-05-02 10:14:00,69.1,37.2,30.44,West,270,0.0,0.0,31,0.00,,,0.00,pywws,2013-05-02 14:14:00,
2013-05-02 10:19:00,70.0,39.5,30.44,West,270,0.0,0.0,33,0.00,,,0.00,pywws,2013-05-02 14:19:00,
2013-05-02 10:25:00,69.8,40.2,30.44,SW,225,0.0,0.0,34,0.00,,,0.00,pywws,2013-05-02 14:25:00,
2013-05-02 10:31:00,70.2,39.7,30.44,West,270,0.0,0.0,33,0.00,,,0.00,pywws,2013-05-02 14:31:00,
2013-05-02 10:36:00,70.7,40.9,30.44,SE,135,0.0,0.0,34,0.00,,,0.00,pywws,2013-05-02 14:36:00,
2013-05-02 10:42:00,70.9,41.1,30.43,West,270,0.0,0.0,34,0.00,,,0.00,pywws,2013-05-02 14:42:00,
2013-05-02 10:47:00,71.1,40.5,30.43,West,270,0.0,0.0,33,0.00,,,0.00,pywws,2013-05-02 14:47:00,
2013-05-02 10:53:00,71.8,37.8,30.43,West,270,0.0,0.0,29,0.00,,,0.00,pywws,2013-05-02 14:53:00,
2013-05-02 10:59:00,71.8,36.0,30.43,SW,225,0.0,0.0,27,0.00,,,0.00,pywws,2013-05-02 14:59:00,
2013-05-02 11:04:00,72.1,36.3,30.42,East,90,0.0,0.0,27,0.00,,,0.00,pywws,2013-05-02 15:04:00,
2013-05-02 11:10:00,73.4,38.3,30.43,West,270,0.0,0.0,28,0.00,,,0.00,pywws,2013-05-02 15:10:00,
2013-05-02 11:15:00,74.5,40.1,30.42,North,0,0.0,0.0,29,0.00,,,0.00,pywws,2013-05-02 15:15:00,
2013-05-02 11:21:00,74.1,39.8,30.42,East,90,0.0,0.0,29,0.00,,,0.00,pywws,2013-05-02 15:21:00,
2013-05-02 11:27:00,75.0,39.7,30.42,East,90,0.0,0.0,28,0.00,,,0.00,pywws,2013-05-02 15:27:00,
2013-05-02 11:32:00,73.6,36.6,30.42,West,270,0.0,0.0,26,0.00,,,0.00,pywws,2013-05-02 15:32:00,
2013-05-02 11:38:00,73.2,34.3,30.41,North,0,0.0,0.0,24,0.00,,,0.00,pywws,2013-05-02 15:38:00,
2013-05-02 11:43:00,74.3,37.2,30.41,North,0,0.0,0.0,26,0.00,,,0.00,pywws,2013-05-02 15:43:00,
2013-05-02 11:49:00,76.6,39.2,30.41,NE,45,0.0,0.0,26,0.00,,,0.00,pywws,2013-05-02 15:49:00,
2013-05-02 11:55:00,78.1,43.2,30.41,North,0,0.0,0.0,29,0.00,,,0.00,pywws,2013-05-02 15:55:00,
2013-05-02 12:00:00,76.1,38.7,30.40,East,90,0.0,0.0,26,0.00,,,0.00,pywws,2013-05-02 16:00:00,
2013-05-02 12:06:00,77.2,38.6,30.40,West,270,0.0,0.0,25,0.00,,,0.00,pywws,2013-05-02 16:06:00,
2013-05-02 12:11:00,78.4,38.6,30.40,South,180,0.0,0.0,24,0.00,,,0.00,pywws,2013-05-02 16:11:00,
2013-05-02 12:17:00,76.5,38.0,30.40,North,0,0.0,0.0,25,0.00,,,0.00,pywws,2013-05-02 16:17:00,
2013-05-02 12:23:00,78.8,38.9,30.39,West,270,0.0,0.0,24,0.00,,,0.00,pywws,2013-05-02 16:23:00,
2013-05-02 12:28:00,79.9,39.8,30.39,South,180,0.0,0.0,24,0.00,,,0.00,pywws,2013-05-02 16:28:00,
2013-05-02 12:34:00,79.7,39.7,30.39,West,270,0.0,0.0,24,0.00,,,0.00,pywws,2013-05-02 16:34:00,
2013-05-02 12:39:00,79.9,38.8,30.39,West,270,0.0,0.0,23,0.00,,,0.00,pywws,2013-05-02 16:39:00,
2013-05-02 12:45:00,80.1,41.0,30.38,South,180,0.0,0.0,25,0.00,,,0.00,pywws,2013-05-02 16:45:00,
2013-05-02 12:51:00,78.8,37.9,30.38,East,90,0.0,0.0,23,0.00,,,0.00,pywws,2013-05-02 16:51:00,
2013-05-02 12:56:00,77.9,38.2,30.39,NE,45,0.0,0.0,24,0.00,,,0.00,pywws,2013-05-02 16:56:00,
2013-05-02 13:02:00,77.9,38.2,30.38,South,180,0.0,0.0,24,0.00,,,0.00,pywws,2013-05-02 17:02:00,
2013-05-02 13:07:00,79.7,38.6,30.38,West,270,0.0,0.0,23,0.00,,,0.00,pywws,2013-05-02 17:07:00,
2013-05-02 13:13:00,79.0,38.0,30.38,South,180,0.0,0.0,23,0.00,,,0.00,pywws,2013-05-02 17:13:00,
2013-05-02 13:19:00,80.1,38.9,30.38,North,0,0.0,0.0,23,0.00,,,0.00,pywws,2013-05-02 17:19:00,
2013-05-02 13:24:00,80.8,37.2,30.37,North,0,0.0,0.0,21,0.00,,,0.00,pywws,2013-05-02 17:24:00,
2013-05-02 13:30:00,80.4,39.2,30.38,East,90,0.0,0.0,23,0.00,,,0.00,pywws,2013-05-02 17:30:00,
2013-05-02 13:35:00,79.0,38.0,30.37,North,0,0.0,0.0,23,0.00,,,0.00,pywws,2013-05-02 17:35:00,
2013-05-02 13:41:00,77.9,39.2,30.37,East,90,0.0,0.0,25,0.00,,,0.00,pywws,2013-05-02 17:41:00,
2013-05-02 13:47:00,79.7,38.6,30.37,South,180,0.0,0.0,23,0.00,,,0.00,pywws,2013-05-02 17:47:00,
2013-05-02 13:52:00,83.3,43.8,30.37,NE,45,0.0,0.0,25,0.00,,,0.00,pywws,2013-05-02 17:52:00,
2013-05-02 13:58:00,82.2,38.4,30.37,West,270,0.0,0.0,21,0.00,,,0.00,pywws,2013-05-02 17:58:00,
2013-05-02 14:03:00,81.1,37.5,30.37,West,270,0.0,0.0,21,0.00,,,0.00,pywws,2013-05-02 18:03:00,
2013-05-02 14:09:00,81.5,37.8,30.36,North,0,0.0,0.0,21,0.00,,,0.00,pywws,2013-05-02 18:09:00,
2013-05-02 14:15:00,82.4,44.0,30.36,South,180,0.0,0.7,26,0.00,,,0.00,pywws,2013-05-02 18:15:00,
2013-05-02 14:20:00,83.7,44.1,30.36,West,270,0.0,0.0,25,0.00,,,0.00,pywws,2013-05-02 18:20:00,
2013-05-02 14:27:00,81.0,37.3,30.36,NE,45,0.0,0.0,21,0.00,,,0.00,pywws,2013-05-02 18:27:00,
2013-05-02 14:36:00,82.9,43.5,30.35,West,270,0.0,1.6,25,0.00,,,0.00,pywws,2013-05-02 18:36:00,
2013-05-02 14:42:00,78.4,37.6,30.35,NE,45,0.0,0.0,23,0.00,,,0.00,pywws,2013-05-02 18:42:00,
2013-05-02 14:47:00,77.0,37.4,30.35,SE,135,0.0,0.0,24,0.00,,,0.00,pywws,2013-05-02 18:47:00,
2013-05-02 14:53:00,76.5,38.0,30.35,NE,45,0.0,0.0,25,0.00,,,0.00,pywws,2013-05-02 18:53:00,
2013-05-02 14:59:00,76.8,38.3,30.35,West,270,0.0,0.0,25,0.00,,,0.00,pywws,2013-05-02 18:59:00,
2013-05-02 15:04:00,77.5,39.9,30.35,SW,225,0.0,0.0,26,0.00,,,0.00,pywws,2013-05-02 19:04:00,
2013-05-02 15:10:00,81.7,43.4,30.34,West,270,0.0,0.0,26,0.00,,,0.00,pywws,2013-05-02 19:10:00,
2013-05-02 15:15:00,84.7,45.0,30.34,NE,45,0.0,0.0,25,0.00,,,0.00,pywws,2013-05-02 19:15:00,
2013-05-02 15:21:00,82.6,43.2,30.34,NE,45,0.0,0.0,25,0.00,,,0.00,pywws,2013-05-02 19:21:00,
2013-05-02 15:27:00,80.4,38.1,30.34,South,180,0.0,0.0,22,0.00,,,0.00,pywws,2013-05-02 19:27:00,
2013-05-02 15:32:00,80.8,37.2,30.34,North,0,0.0,2.2,21,0.00,,,0.00,pywws,2013-05-02 19:32:00,
2013-05-02 15:38:00,82.2,38.4,30.34,North,0,0.0,0.0,21,0.00,,,0.00,pywws,2013-05-02 19:38:00,
2013-05-02 15:43:00,82.0,38.2,30.34,East,90,0.0,2.2,21,0.00,,,0.00,pywws,2013-05-02 19:43:00,
2013-05-02 15:49:00,80.1,38.9,30.34,North,0,0.0,0.7,23,0.00,,,0.00,pywws,2013-05-02 19:49:00,
2013-05-02 15:55:00,80.6,37.0,30.34,North,0,0.0,0.0,21,0.00,,,0.00,pywws,2013-05-02 19:55:00,
2013-05-02 16:00:00,80.8,37.2,30.34,NE,45,0.0,0.7,21,0.00,,,0.00,pywws,2013-05-02 20:00:00,
2013-05-02 16:06:00,83.7,45.1,30.33,South,180,0.0,0.0,26,0.00,,,0.00,pywws,2013-05-02 20:06:00,
2013-05-02 16:11:00,81.5,40.1,30.33,East,90,0.0,0.0,23,0.00,,,0.00,pywws,2013-05-02 20:11:00,
2013-05-02 16:17:00,79.3,38.3,30.34,East,90,0.0,1.6,23,0.00,,,0.00,pywws,2013-05-02 20:17:00,
2013-05-02 16:23:00,76.5,39.0,30.34,NE,45,0.0,0.0,26,0.00,,,0.00,pywws,2013-05-02 20:23:00,
2013-05-02 16:28:00,77.7,39.1,30.34,NE,45,0.7,4.5,25,0.00,,,0.00,pywws,2013-05-02 20:28:00,
2013-05-02 16:34:00,75.4,37.1,30.34,North,0,0.0,0.0,25,0.00,,,0.00,pywws,2013-05-02 20:34:00,
2013-05-02 16:39:00,75.6,38.3,30.35,SE,135,0.0,0.7,26,0.00,,,0.00,pywws,2013-05-02 20:39:00,
2013-05-02 16:45:00,74.3,38.1,30.35,North,0,0.0,2.2,27,0.00,,,0.00,pywws,2013-05-02 20:45:00,
2013-05-02 16:51:00,73.6,37.5,30.35,NE,45,0.7,5.4,27,0.00,,,0.00,pywws,2013-05-02 20:51:00,
2013-05-02 16:56:00,72.0,36.1,30.36,NE,45,0.0,2.2,27,0.00,,,0.00,pywws,2013-05-02 20:56:00,
2013-05-02 17:02:00,70.7,39.4,30.37,North,0,0.7,5.4,32,0.00,,,0.00,pywws,2013-05-02 21:02:00,
2013-05-02 17:07:00,69.8,39.4,30.37,NE,45,0.0,1.6,33,0.00,,,0.00,pywws,2013-05-02 21:07:00,
2013-05-02 17:13:00,68.4,40.4,30.37,West,270,0.0,0.0,36,0.00,,,0.00,pywws,2013-05-02 21:13:00,
2013-05-02 17:19:00,65.7,40.7,30.38,West,270,0.0,0.0,40,0.00,,,0.00,pywws,2013-05-02 21:19:00,
2013-05-02 17:24:00,64.6,40.3,30.38,NE,45,0.7,3.8,41,0.00,,,0.00,pywws,2013-05-02 21:24:00,
2013-05-02 17:30:00,62.8,40.0,30.39,SE,135,0.0,0.0,43,0.00,,,0.00,pywws,2013-05-02 21:30:00,
2013-05-02 17:35:00,62.6,41.0,30.40,North,0,1.6,11.4,45,0.00,,,0.00,pywws,2013-05-02 21:35:00,
2013-05-02 17:41:00,61.5,41.6,30.40,North,0,0.0,0.7,48,0.00,,,0.00,pywws,2013-05-02 21:41:00,
2013-05-02 17:47:00,61.3,42.0,30.40,North,0,0.7,3.8,49,0.00,,,0.00,pywws,2013-05-02 21:47:00,
2013-05-02 17:52:00,61.2,41.3,30.40,North,0,0.0,0.7,48,0.00,,,0.00,pywws,2013-05-02 21:52:00,
2013-05-02 17:58:00,60.8,41.5,30.40,West,270,0.0,0.0,49,0.00,,,0.00,pywws,2013-05-02 21:58:00,
2013-05-02 18:03:00,60.6,41.4,30.41,North,0,0.0,0.0,49,0.00,,,0.00,pywws,2013-05-02 22:03:00,
2013-05-02 18:09:00,60.3,42.6,30.42,North,0,0.0,0.0,52,0.00,,,0.00,pywws,2013-05-02 22:09:00,
2013-05-02 18:15:00,59.9,43.2,30.42,NE,45,0.0,0.7,54,0.00,,,0.00,pywws,2013-05-02 22:15:00,
2013-05-02 18:20:00,58.8,42.7,30.42,East,90,0.0,0.7,55,0.00,,,0.00,pywws,2013-05-02 22:20:00,
2013-05-02 18:26:00,57.6,41.0,30.43,West,270,3.1,12.1,54,0.00,,,0.00,pywws,2013-05-02 22:26:00,
2013-05-02 18:31:00,57.2,40.7,30.43,North,0,0.0,2.2,54,0.00,,,0.00,pywws,2013-05-02 22:31:00,
2013-05-02 18:37:00,56.8,40.4,30.43,West,270,0.0,3.1,54,0.00,,,0.00,pywws,2013-05-02 22:37:00,
2013-05-02 18:43:00,57.0,41.0,30.43,North,0,0.0,0.7,55,0.00,,,0.00,pywws,2013-05-02 22:43:00,
2013-05-02 18:48:00,56.8,40.8,30.43,North,0,0.0,0.0,55,0.00,,,0.00,pywws,2013-05-02 22:48:00,
2013-05-02 18:54:00,56.5,41.0,30.43,East,90,0.0,0.0,56,0.00,,,0.00,pywws,2013-05-02 22:54:00,
2013-05-02 18:59:00,56.5,41.0,30.44,East,90,0.0,0.0,56,0.00,,,0.00,pywws,2013-05-02 22:59:00,
2013-05-02 19:05:00,56.5,41.4,30.44,SE,135,0.0,0.0,57,0.00,,,0.00,pywws,2013-05-02 23:05:00,
2013-05-02 19:11:00,56.3,41.7,30.45,North,0,0.0,0.7,58,0.00,,,0.00,pywws,2013-05-02 23:11:00,
2013-05-02 19:16:00,55.6,41.0,30.45,NW,315,0.0,0.7,58,0.00,,,0.00,pywws,2013-05-02 23:16:00,
2013-05-02 19:22:00,55.2,40.7,30.46,East,90,0.0,0.0,58,0.00,,,0.00,pywws,2013-05-02 23:22:00,
2013-05-02 19:27:00,54.7,40.2,30.46,North,0,0.0,0.0,58,0.00,,,0.00,pywws,2013-05-02 23:27:00,
2013-05-02 19:33:00,54.5,40.5,30.46,West,270,0.0,0.0,59,0.00,,,0.00,pywws,2013-05-02 23:33:00,
2013-05-02 19:39:00,54.1,40.6,30.47,North,0,3.1,6.9,60,0.00,,,0.00,pywws,2013-05-02 23:39:00,
2013-05-02 19:44:00,54.0,40.8,30.46,NW,315,0.0,0.0,61,0.00,,,0.00,pywws,2013-05-02 23:44:00,
2013-05-02 19:50:00,53.6,40.5,30.47,North,0,0.0,2.2,61,0.00,,,0.00,pywws,2013-05-02 23:50:00,
2013-05-02 19:55:00,53.2,40.1,30.47,NE,45,0.0,2.2,61,0.00,,,0.00,pywws,2013-05-02 23:55:00,
2013-05-02 20:01:00,53.1,40.0,30.47,North,0,0.0,0.0,61,0.00,,,0.00,pywws,2013-05-03 00:01:00,
2013-05-02 20:07:00,52.7,38.8,30.47,SW,225,0.0,1.6,59,0.00,,,0.00,pywws,2013-05-03 00:07:00,
2013-05-02 20:12:00,52.3,37.1,30.47,North,0,0.0,0.7,56,0.00,,,0.00,pywws,2013-05-03 00:12:00,
2013-05-02 20:18:00,51.6,36.0,30.48,North,0,0.0,0.0,55,0.00,,,0.00,pywws,2013-05-03 00:18:00,
2013-05-02 20:23:00,51.4,36.3,30.48,SW,225,0.7,3.8,56,0.00,,,0.00,pywws,2013-05-03 00:23:00,
2013-05-02 20:29:00,51.1,36.4,30.49,East,90,0.0,1.6,57,0.00,,,0.00,pywws,2013-05-03 00:29:00,
2013-05-02 20:35:00,51.1,36.4,30.48,NE,45,0.7,6.0,57,0.00,,,0.00,pywws,2013-05-03 00:35:00,
2013-05-02 20:40:00,50.9,36.2,30.49,East,90,0.0,0.0,57,0.00,,,0.00,pywws,2013-05-03 00:40:00,
2013-05-02 20:46:00,50.9,36.7,30.50,NE,45,0.0,0.0,58,0.00,,,0.00,pywws,2013-05-03 00:46:00,
2013-05-02 20:51:00,50.7,36.9,30.50,North,0,0.0,0.0,59,0.00,,,0.00,pywws,2013-05-03 00:51:00,
2013-05-02 20:57:00,50.5,37.2,30.50,North,0,0.0,0.0,60,0.00,,,0.00,pywws,2013-05-03 00:57:00,
2013-05-02 21:03:00,50.5,38.0,30.50,NE,45,0.0,0.0,62,0.00,,,0.00,pywws,2013-05-03 01:03:00,
2013-05-02 21:08:00,50.5,38.4,30.51,North,0,0.0,0.0,63,0.00,,,0.00,pywws,2013-05-03 01:08:00,
2013-05-02 21:14:00,50.4,38.2,30.50,NW,315,0.0,0.0,63,0.00,,,0.00,pywws,2013-05-03 01:14:00,
2013-05-02 21:20:00,50.4,38.2,30.50,West,270,0.0,0.0,63,0.00,,,0.00,pywws,2013-05-03 01:20:00,
2013-05-02 21:26:00,50.4,38.6,30.50,SE,135,0.0,0.0,64,0.00,,,0.00,pywws,2013-05-03 01:26:00,
2013-05-02 21:31:00,50.4,38.6,30.50,North,0,0.0,0.0,64,0.00,,,0.00,pywws,2013-05-03 01:31:00,
2013-05-02 21:37:00,50.4,38.6,30.50,North,0,0.0,0.0,64,0.00,,,0.00,pywws,2013-05-03 01:37:00,
2013-05-02 21:43:00,50.2,38.5,30.50,West,270,0.0,0.0,64,0.00,,,0.00,pywws,2013-05-03 01:43:00,
2013-05-02 21:49:00,50.2,38.5,30.50,West,270,0.0,0.0,64,0.00,,,0.00,pywws,2013-05-03 01:49:00,
2013-05-02 21:56:00,50.2,38.5,30.50,North,0,0.0,0.0,64,0.00,,,0.00,pywws,2013-05-03 01:56:00,
2013-05-02 22:02:00,50.4,38.2,30.50,North,0,0.0,0.0,63,0.00,,,0.00,pywws,2013-05-03 02:02:00,
2013-05-02 22:07:00,50.4,38.2,30.50,West,270,0.0,0.0,63,0.00,,,0.00,pywws,2013-05-03 02:07:00,
2013-05-02 22:13:00,50.2,38.1,30.50,East,90,0.0,0.0,63,0.00,,,0.00,pywws,2013-05-03 02:13:00,
2013-05-02 22:19:00,50.2,38.1,30.50,North,0,0.0,0.0,63,0.00,,,0.00,pywws,2013-05-03 02:19:00,
2013-05-02 22:25:00,49.8,38.1,30.50,West,270,0.0,0.0,64,0.00,,,0.00,pywws,2013-05-03 02:25:00,
2013-05-02 22:31:00,49.5,38.2,30.50,West,270,0.0,0.0,65,0.00,,,0.00,pywws,2013-05-03 02:31:00,
2013-05-02 22:39:00,49.8,38.5,30.50,North,0,0.0,0.0,65,0.00,,,0.00,pywws,2013-05-03 02:39:00,
2013-05-02 22:44:00,49.5,38.6,30.50,North,0,0.0,0.0,66,0.00,,,0.00,pywws,2013-05-03 02:44:00,
2013-05-02 22:51:00,49.6,38.8,30.50,NW,315,0.0,0.0,66,0.00,,,0.00,pywws,2013-05-03 02:51:00,
2013-05-02 22:56:00,49.5,38.6,30.50,North,0,0.0,0.0,66,0.00,,,0.00,pywws,2013-05-03 02:56:00,
2013-05-02 23:02:00,49.6,38.8,30.50,North,0,0.0,0.0,66,0.00,,,0.00,pywws,2013-05-03 03:02:00,
2013-05-02 23:07:00,49.5,38.6,30.50,North,0,0.0,0.0,66,0.00,,,0.00,pywws,2013-05-03 03:07:00,
2013-05-02 23:13:00,49.5,38.2,30.50,East,90,0.0,0.0,65,0.00,,,0.00,pywws,2013-05-03 03:13:00,
2013-05-02 23:19:00,48.9,38.1,30.50,East,90,0.0,0.0,66,0.00,,,0.00,pywws,2013-05-03 03:19:00,
2013-05-02 23:24:00,48.7,37.9,30.50,North,0,0.0,0.0,66,0.00,,,0.00,pywws,2013-05-03 03:24:00,
2013-05-02 23:30:00,48.0,37.6,30.50,North,0,0.0,0.0,67,0.00,,,0.00,pywws,2013-05-03 03:30:00,
2013-05-02 23:35:00,47.7,37.6,30.50,North,0,0.0,0.0,68,0.00,,,0.00,pywws,2013-05-03 03:35:00,
2013-05-02 23:41:00,46.9,37.7,30.50,North,0,0.0,0.0,70,0.00,,,0.00,pywws,2013-05-03 03:41:00,
2013-05-02 23:47:00,46.0,37.2,30.50,North,0,0.0,0.0,71,0.00,,,0.00,pywws,2013-05-03 03:47:00,
2013-05-02 23:52:00,45.3,36.8,30.50,North,0,0.0,0.0,72,0.00,,,0.00,pywws,2013-05-03 03:52:00,
2013-05-02 23:59:00,45.3,37.2,30.50,North,0,0.0,0.0,73,0.00,,,0.00,pywws,2013-05-03 03:59:00,